sensor_id;sensor_type;location;lat;lon;timestamp;pressure;altitude;pressure_sealevel;temperature;humidity
49627;BME280;35527;54.616;39.786;2023-01-25T00:01:43;101598.84;;;-5.23;100.00
49627;BME280;35527;54.616;39.786;2023-01-25T00:04:49;101587.38;;;-5.33;100.00
49627;BME280;35527;54.616;39.786;2023-01-25T00:07:51;101587.75;;;-5.41;100.00
49627;BME280;35527;54.616;39.786;2023-01-25T00:10:57;101574.75;;;-5.49;100.00
49627;BME280;35527;54.616;39.786;2023-01-25T00:14:05;101586.34;;;-5.36;100.00
49627;BME280;35527;54.616;39.786;2023-01-25T00:17:09;101578.88;;;-5.35;100.00
49627;BME280;35527;54.616;39.786;2023-01-25T00:20:12;101556.47;;;-5.45;100.00
49627;BME280;35527;54.616;39.786;2023-01-25T00:23:15;101574.75;;;-5.49;100.00
49627;BME280;35527;54.616;39.786;2023-01-25T00:26:17;101581.78;;;-5.27;100.00
49627;BME280;35527;54.616;39.786;2023-01-25T00:29:21;101537.94;;;-5.46;100.00
49627;BME280;35527;54.616;39.786;2023-01-25T00:32:39;101554.75;;;-5.30;100.00
49627;BME280;35527;54.616;39.786;2023-01-25T00:35:44;101544.66;;;-5.30;100.00
49627;BME280;35527;54.616;39.786;2023-01-25T00:38:52;101536.25;;;-5.14;100.00
49627;BME280;35527;54.616;39.786;2023-01-25T00:41:56;101567.16;;;-5.02;100.00
49627;BME280;35527;54.616;39.786;2023-01-25T00:45:00;101538.28;;;-4.90;100.00
49627;BME280;35527;54.616;39.786;2023-01-25T00:48:07;101533.78;;;-5.12;100.00
49627;BME280;35527;54.616;39.786;2023-01-25T00:51:10;101570.66;;;-4.83;100.00
49627;BME280;35527;54.616;39.786;2023-01-25T00:54:15;101561.78;;;-4.42;100.00
49627;BME280;35527;54.616;39.786;2023-01-25T00:57:19;101584.19;;;-4.81;100.00
49627;BME280;35527;54.616;39.786;2023-01-25T01:00:47;101559.50;;;-4.54;100.00
49627;BME280;35527;54.616;39.786;2023-01-25T01:03:52;101547.75;;;-4.70;100.00
49627;BME280;35527;54.616;39.786;2023-01-25T01:07:00;101547.91;;;-4.67;100.00
49627;BME280;35527;54.616;39.786;2023-01-25T01:10:03;101525.06;;;-4.86;100.00
49627;BME280;35527;54.616;39.786;2023-01-25T01:13:08;101537.19;;;-4.63;100.00
49627;BME280;35527;54.616;39.786;2023-01-25T01:16:13;101541.44;;;-4.62;100.00
49627;BME280;35527;54.616;39.786;2023-01-25T01:19:17;101543.25;;;-4.59;100.00
49627;BME280;35527;54.616;39.786;2023-01-25T01:22:21;101538.69;;;-4.66;100.00
49627;BME280;35527;54.616;39.786;2023-01-25T01:25:49;101520.91;;;-4.68;100.00
49627;BME280;35527;54.616;39.786;2023-01-25T01:28:57;101487.03;;;-5.06;100.00
49627;BME280;35527;54.616;39.786;2023-01-25T01:32:06;101530.19;;;-4.50;100.00
49627;BME280;35527;54.616;39.786;2023-01-25T01:35:13;101515.41;;;-4.77;100.00
49627;BME280;35527;54.616;39.786;2023-01-25T01:38:18;101521.78;;;-4.67;100.00
49627;BME280;35527;54.616;39.786;2023-01-25T01:41:23;101536.47;;;-4.77;100.00
49627;BME280;35527;54.616;39.786;2023-01-25T01:44:48;101521.38;;;-4.75;100.00
49627;BME280;35527;54.616;39.786;2023-01-25T01:47:56;101526.22;;;-4.80;100.00
49627;BME280;35527;54.616;39.786;2023-01-25T01:54:15;101519.03;;;-4.72;100.00
49627;BME280;35527;54.616;39.786;2023-01-25T01:57:24;101509.00;;;-4.70;100.00
49627;BME280;35527;54.616;39.786;2023-01-25T02:00:34;101520.06;;;-4.68;100.00
49627;BME280;35527;54.616;39.786;2023-01-25T02:03:41;101509.50;;;-4.78;100.00
49627;BME280;35527;54.616;39.786;2023-01-25T02:06:52;101499.00;;;-4.69;100.00
49627;BME280;35527;54.616;39.786;2023-01-25T02:09:59;101485.66;;;-4.66;100.00
49627;BME280;35527;54.616;39.786;2023-01-25T02:13:03;101508.59;;;-4.62;100.00
49627;BME280;35527;54.616;39.786;2023-01-25T02:16:13;101471.97;;;-4.70;100.00
49627;BME280;35527;54.616;39.786;2023-01-25T02:19:55;101483.13;;;-4.66;100.00
49627;BME280;35527;54.616;39.786;2023-01-25T02:26:16;101480.69;;;-4.47;100.00
49627;BME280;35527;54.616;39.786;2023-01-25T02:29:21;101464.09;;;-4.42;100.00
49627;BME280;35527;54.616;39.786;2023-01-25T02:32:26;101478.25;;;-4.27;100.00
49627;BME280;35527;54.616;39.786;2023-01-25T02:35:46;101456.34;;;-4.63;100.00
49627;BME280;35527;54.616;39.786;2023-01-25T02:39:01;101439.00;;;-4.55;100.00
49627;BME280;35527;54.616;39.786;2023-01-25T02:42:04;101457.88;;;-4.48;100.00
49627;BME280;35527;54.616;39.786;2023-01-25T02:45:11;101453.41;;;-4.54;100.00
49627;BME280;35527;54.616;39.786;2023-01-25T02:48:16;101447.34;;;-4.58;100.00
49627;BME280;35527;54.616;39.786;2023-01-25T02:51:23;101455.34;;;-4.48;100.00
49627;BME280;35527;54.616;39.786;2023-01-25T02:54:29;101450.78;;;-4.56;100.00
49627;BME280;35527;54.616;39.786;2023-01-25T02:57:32;101461.38;;;-4.28;100.00
49627;BME280;35527;54.616;39.786;2023-01-25T03:00:35;101444.09;;;-4.37;100.00
49627;BME280;35527;54.616;39.786;2023-01-25T03:03:39;101433.44;;;-4.32;100.00
49627;BME280;35527;54.616;39.786;2023-01-25T03:06:46;101424.53;;;-4.41;100.00
49627;BME280;35527;54.616;39.786;2023-01-25T03:09:48;101446.13;;;-4.48;100.00
49627;BME280;35527;54.616;39.786;2023-01-25T03:12:52;101430.81;;;-4.51;100.00
49627;BME280;35527;54.616;39.786;2023-01-25T03:16:01;101435.72;;;-4.36;100.00
49627;BME280;35527;54.616;39.786;2023-01-25T03:19:05;101443.25;;;-4.20;100.00
49627;BME280;35527;54.616;39.786;2023-01-25T03:22:09;101438.47;;;-4.32;100.00
49627;BME280;35527;54.616;39.786;2023-01-25T03:25:13;101447.44;;;-4.20;100.00
49627;BME280;35527;54.616;39.786;2023-01-25T03:28:28;101458.13;;;-4.26;100.00
49627;BME280;35527;54.616;39.786;2023-01-25T03:31:34;101460.31;;;-4.32;100.00
49627;BME280;35527;54.616;39.786;2023-01-25T03:34:38;101454.34;;;-4.16;100.00
49627;BME280;35527;54.616;39.786;2023-01-25T03:37:41;101446.13;;;-4.30;100.00
49627;BME280;35527;54.616;39.786;2023-01-25T03:40:44;101424.22;;;-4.47;100.00
49627;BME280;35527;54.616;39.786;2023-01-25T03:43:48;101474.06;;;-4.27;100.00
49627;BME280;35527;54.616;39.786;2023-01-25T03:46:52;101456.44;;;-4.08;100.00
49627;BME280;35527;54.616;39.786;2023-01-25T03:49:55;101481.06;;;-4.21;100.00
49627;BME280;35527;54.616;39.786;2023-01-25T03:52:59;101478.19;;;-4.29;100.00
49627;BME280;35527;54.616;39.786;2023-01-25T03:56:10;101463.59;;;-4.35;100.00
49627;BME280;35527;54.616;39.786;2023-01-25T03:59:20;101483.16;;;-4.13;100.00
49627;BME280;35527;54.616;39.786;2023-01-25T04:02:25;101486.72;;;-4.09;100.00
49627;BME280;35527;54.616;39.786;2023-01-25T04:05:30;101492.41;;;-4.31;100.00
49627;BME280;35527;54.616;39.786;2023-01-25T04:09:00;101472.47;;;-4.43;100.00
49627;BME280;35527;54.616;39.786;2023-01-25T04:12:10;101493.50;;;-4.26;100.00
49627;BME280;35527;54.616;39.786;2023-01-25T04:15:13;101491.13;;;-4.23;100.00
49627;BME280;35527;54.616;39.786;2023-01-25T04:18:17;101493.00;;;-4.19;100.00
49627;BME280;35527;54.616;39.786;2023-01-25T04:21:21;101479.06;;;-4.28;100.00
49627;BME280;35527;54.616;39.786;2023-01-25T04:24:26;101506.28;;;-4.23;100.00
49627;BME280;35527;54.616;39.786;2023-01-25T04:27:30;101497.41;;;-4.15;100.00
49627;BME280;35527;54.616;39.786;2023-01-25T04:30:43;101491.97;;;-4.22;100.00
49627;BME280;35527;54.616;39.786;2023-01-25T04:33:46;101495.00;;;-4.30;100.00
49627;BME280;35527;54.616;39.786;2023-01-25T04:36:53;101459.56;;;-4.49;100.00
49627;BME280;35527;54.616;39.786;2023-01-25T04:40:00;101488.34;;;-4.27;100.00
49627;BME280;35527;54.616;39.786;2023-01-25T04:43:13;101484.25;;;-4.25;100.00
49627;BME280;35527;54.616;39.786;2023-01-25T04:46:44;101481.72;;;-4.08;100.00
49627;BME280;35527;54.616;39.786;2023-01-25T04:49:46;101471.47;;;-3.93;100.00
49627;BME280;35527;54.616;39.786;2023-01-25T04:52:55;101461.78;;;-4.01;100.00
49627;BME280;35527;54.616;39.786;2023-01-25T04:55:59;101462.22;;;-4.10;100.00
49627;BME280;35527;54.616;39.786;2023-01-25T04:59:09;101436.09;;;-4.28;100.00
49627;BME280;35527;54.616;39.786;2023-01-25T05:02:13;101467.84;;;-4.16;100.00
49627;BME280;35527;54.616;39.786;2023-01-25T05:05:17;101469.28;;;-4.21;100.00
49627;BME280;35527;54.616;39.786;2023-01-25T05:08:22;101451.13;;;-4.32;100.00
49627;BME280;35527;54.616;39.786;2023-01-25T05:11:53;101484.91;;;-4.12;100.00
49627;BME280;35527;54.616;39.786;2023-01-25T05:15:10;101461.06;;;-4.17;100.00
49627;BME280;35527;54.616;39.786;2023-01-25T05:18:17;101486.28;;;-4.00;100.00
49627;BME280;35527;54.616;39.786;2023-01-25T05:21:24;101445.34;;;-4.11;100.00
49627;BME280;35527;54.616;39.786;2023-01-25T05:24:48;101490.81;;;-3.93;100.00
49627;BME280;35527;54.616;39.786;2023-01-25T05:27:56;101493.13;;;-3.98;100.00
49627;BME280;35527;54.616;39.786;2023-01-25T05:31:19;101487.00;;;-4.03;100.00
49627;BME280;35527;54.616;39.786;2023-01-25T05:34:24;101483.97;;;-3.96;100.00
49627;BME280;35527;54.616;39.786;2023-01-25T05:37:30;101477.97;;;-3.80;100.00
49627;BME280;35527;54.616;39.786;2023-01-25T05:40:39;101486.78;;;-3.72;100.00
49627;BME280;35527;54.616;39.786;2023-01-25T05:43:47;101491.06;;;-3.69;100.00
49627;BME280;35527;54.616;39.786;2023-01-25T05:46:51;101472.69;;;-3.85;100.00
49627;BME280;35527;54.616;39.786;2023-01-25T05:49:57;101492.41;;;-3.95;100.00
49627;BME280;35527;54.616;39.786;2023-01-25T05:53:14;101484.63;;;-4.00;100.00
49627;BME280;35527;54.616;39.786;2023-01-25T05:56:16;101460.13;;;-4.19;100.00
49627;BME280;35527;54.616;39.786;2023-01-25T05:59:21;101487.78;;;-4.04;100.00
49627;BME280;35527;54.616;39.786;2023-01-25T06:02:28;101481.28;;;-3.99;100.00
49627;BME280;35527;54.616;39.786;2023-01-25T06:05:31;101485.47;;;-3.99;100.00
49627;BME280;35527;54.616;39.786;2023-01-25T06:08:38;101488.44;;;-3.90;100.00
49627;BME280;35527;54.616;39.786;2023-01-25T06:11:44;101484.50;;;-3.66;100.00
49627;BME280;35527;54.616;39.786;2023-01-25T06:14:50;101486.19;;;-3.66;100.00
49627;BME280;35527;54.616;39.786;2023-01-25T06:17:55;101470.09;;;-3.86;100.00
49627;BME280;35527;54.616;39.786;2023-01-25T06:21:06;101472.53;;;-3.88;100.00
49627;BME280;35527;54.616;39.786;2023-01-25T06:24:12;101473.56;;;-4.02;100.00
49627;BME280;35527;54.616;39.786;2023-01-25T06:27:15;101487.06;;;-4.01;100.00
49627;BME280;35527;54.616;39.786;2023-01-25T06:30:20;101464.16;;;-4.04;100.00
49627;BME280;35527;54.616;39.786;2023-01-25T06:33:25;101485.72;;;-3.95;100.00
49627;BME280;35527;54.616;39.786;2023-01-25T06:36:31;101474.13;;;-3.90;100.00
49627;BME280;35527;54.616;39.786;2023-01-25T06:39:36;101484.97;;;-3.92;100.00
49627;BME280;35527;54.616;39.786;2023-01-25T06:42:39;101491.88;;;-3.70;100.00
49627;BME280;35527;54.616;39.786;2023-01-25T06:45:45;101494.06;;;-3.78;100.00
49627;BME280;35527;54.616;39.786;2023-01-25T06:48:48;101491.34;;;-3.82;100.00
49627;BME280;35527;54.616;39.786;2023-01-25T06:51:50;101491.19;;;-3.86;100.00
49627;BME280;35527;54.616;39.786;2023-01-25T06:54:53;101475.66;;;-3.93;100.00
49627;BME280;35527;54.616;39.786;2023-01-25T06:57:59;101473.63;;;-3.82;100.00
49627;BME280;35527;54.616;39.786;2023-01-25T07:01:15;101491.75;;;-3.73;100.00
49627;BME280;35527;54.616;39.786;2023-01-25T07:04:21;101497.88;;;-3.68;100.00
49627;BME280;35527;54.616;39.786;2023-01-25T07:07:24;101497.81;;;-3.70;100.00
49627;BME280;35527;54.616;39.786;2023-01-25T07:10:29;101494.69;;;-3.64;100.00
49627;BME280;35527;54.616;39.786;2023-01-25T07:13:33;101476.94;;;-3.66;100.00
49627;BME280;35527;54.616;39.786;2023-01-25T07:16:37;101489.00;;;-3.60;100.00
49627;BME280;35527;54.616;39.786;2023-01-25T07:19:43;101487.50;;;-3.55;100.00
49627;BME280;35527;54.616;39.786;2023-01-25T07:22:46;101480.72;;;-3.56;100.00
49627;BME280;35527;54.616;39.786;2023-01-25T07:25:50;101470.53;;;-3.38;100.00
49627;BME280;35527;54.616;39.786;2023-01-25T07:28:55;101486.34;;;-3.24;100.00
49627;BME280;35527;54.616;39.786;2023-01-25T07:32:24;101483.09;;;-3.22;100.00
49627;BME280;35527;54.616;39.786;2023-01-25T07:35:30;101467.09;;;-3.40;100.00
49627;BME280;35527;54.616;39.786;2023-01-25T07:38:35;101479.63;;;-3.43;100.00
49627;BME280;35527;54.616;39.786;2023-01-25T07:41:41;101481.88;;;-3.30;100.00
49627;BME280;35527;54.616;39.786;2023-01-25T07:44:51;101472.22;;;-3.19;100.00
49627;BME280;35527;54.616;39.786;2023-01-25T07:48:07;101469.22;;;-3.30;100.00
49627;BME280;35527;54.616;39.786;2023-01-25T07:51:14;101455.38;;;-3.38;100.00
49627;BME280;35527;54.616;39.786;2023-01-25T07:54:42;101462.63;;;-3.07;100.00
49627;BME280;35527;54.616;39.786;2023-01-25T07:57:53;101469.34;;;-3.07;100.00
49627;BME280;35527;54.616;39.786;2023-01-25T08:01:14;101464.63;;;-3.19;100.00
49627;BME280;35527;54.616;39.786;2023-01-25T08:04:20;101462.34;;;-2.74;100.00
49627;BME280;35527;54.616;39.786;2023-01-25T08:07:24;101475.03;;;-3.13;100.00
49627;BME280;35527;54.616;39.786;2023-01-25T08:10:26;101482.88;;;-3.07;100.00
49627;BME280;35527;54.616;39.786;2023-01-25T08:13:32;101480.28;;;-2.89;100.00
49627;BME280;35527;54.616;39.786;2023-01-25T08:16:36;101489.13;;;-2.79;100.00
49627;BME280;35527;54.616;39.786;2023-01-25T08:19:45;101479.81;;;-2.59;100.00
49627;BME280;35527;54.616;39.786;2023-01-25T08:22:50;101463.59;;;-2.84;100.00
49627;BME280;35527;54.616;39.786;2023-01-25T08:25:54;101455.25;;;-2.81;100.00
49627;BME280;35527;54.616;39.786;2023-01-25T08:29:00;101478.31;;;-2.75;100.00
49627;BME280;35527;54.616;39.786;2023-01-25T08:32:07;101482.72;;;-2.71;100.00
49627;BME280;35527;54.616;39.786;2023-01-25T08:35:15;101473.78;;;-2.63;100.00
49627;BME280;35527;54.616;39.786;2023-01-25T08:38:21;101477.00;;;-2.46;100.00
49627;BME280;35527;54.616;39.786;2023-01-25T08:41:27;101452.41;;;-2.48;100.00
49627;BME280;35527;54.616;39.786;2023-01-25T08:44:31;101467.50;;;-2.29;100.00
49627;BME280;35527;54.616;39.786;2023-01-25T08:47:34;101458.19;;;-2.51;100.00
49627;BME280;35527;54.616;39.786;2023-01-25T08:50:39;101454.72;;;-2.53;100.00
49627;BME280;35527;54.616;39.786;2023-01-25T08:53:44;101443.09;;;-2.69;100.00
49627;BME280;35527;54.616;39.786;2023-01-25T08:56:48;101460.53;;;-2.56;100.00
49627;BME280;35527;54.616;39.786;2023-01-25T08:59:51;101465.44;;;-2.39;100.00
49627;BME280;35527;54.616;39.786;2023-01-25T09:02:55;101443.66;;;-2.34;100.00
49627;BME280;35527;54.616;39.786;2023-01-25T09:06:00;101456.31;;;-2.55;100.00
49627;BME280;35527;54.616;39.786;2023-01-25T09:09:05;101447.81;;;-2.57;100.00
49627;BME280;35527;54.616;39.786;2023-01-25T09:12:09;101451.78;;;-2.43;100.00
49627;BME280;35527;54.616;39.786;2023-01-25T09:15:14;101446.44;;;-2.28;100.00
49627;BME280;35527;54.616;39.786;2023-01-25T09:18:21;101434.81;;;-2.23;100.00
49627;BME280;35527;54.616;39.786;2023-01-25T09:21:26;101428.13;;;-2.21;100.00
49627;BME280;35527;54.616;39.786;2023-01-25T09:24:31;101423.22;;;-2.16;100.00
49627;BME280;35527;54.616;39.786;2023-01-25T09:27:41;101410.19;;;-2.25;100.00
49627;BME280;35527;54.616;39.786;2023-01-25T09:30:43;101429.25;;;-2.14;100.00
49627;BME280;35527;54.616;39.786;2023-01-25T09:34:27;101419.94;;;-2.14;100.00
49627;BME280;35527;54.616;39.786;2023-01-25T09:37:35;101420.59;;;-2.19;100.00
49627;BME280;35527;54.616;39.786;2023-01-25T09:40:51;101414.53;;;-2.23;100.00
49627;BME280;35527;54.616;39.786;2023-01-25T09:47:29;101395.00;;;-2.25;100.00
49627;BME280;35527;54.616;39.786;2023-01-25T09:51:29;101404.78;;;-1.90;100.00
49627;BME280;35527;54.616;39.786;2023-01-25T09:54:08;101406.44;;;-2.13;100.00
49627;BME280;35527;54.616;39.786;2023-01-25T09:57:31;101409.84;;;-2.12;100.00
49627;BME280;35527;54.616;39.786;2023-01-25T10:00:43;101393.13;;;-2.30;100.00
49627;BME280;35527;54.616;39.786;2023-01-25T10:04:01;101388.78;;;-2.32;100.00
49627;BME280;35527;54.616;39.786;2023-01-25T10:07:49;101388.13;;;-2.28;100.00
49627;BME280;35527;54.616;39.786;2023-01-25T10:11:27;101383.50;;;-2.16;100.00
49627;BME280;35527;54.616;39.786;2023-01-25T10:14:31;101378.31;;;-2.19;100.00
49627;BME280;35527;54.616;39.786;2023-01-25T10:17:40;101380.31;;;-2.12;100.00
49627;BME280;35527;54.616;39.786;2023-01-25T10:20:56;101369.22;;;-2.14;100.00
49627;BME280;35527;54.616;39.786;2023-01-25T10:24:13;101370.72;;;-2.19;100.00
49627;BME280;35527;54.616;39.786;2023-01-25T10:30:58;101335.81;;;-2.26;100.00
49627;BME280;35527;54.616;39.786;2023-01-25T10:34:14;101349.09;;;-2.09;100.00
49627;BME280;35527;54.616;39.786;2023-01-25T10:37:23;101345.78;;;-2.08;100.00
49627;BME280;35527;54.616;39.786;2023-01-25T10:40:32;101347.44;;;-2.09;100.00
49627;BME280;35527;54.616;39.786;2023-01-25T10:43:39;101343.69;;;-2.18;100.00
49627;BME280;35527;54.616;39.786;2023-01-25T10:46:48;101348.75;;;-2.18;100.00
49627;BME280;35527;54.616;39.786;2023-01-25T10:49:54;101339.59;;;-2.15;100.00
49627;BME280;35527;54.616;39.786;2023-01-25T10:52:57;101326.88;;;-2.16;100.00
49627;BME280;35527;54.616;39.786;2023-01-25T11:06:39;101326.91;;;-2.15;100.00
49627;BME280;35527;54.616;39.786;2023-01-25T11:09:52;101329.50;;;-2.13;100.00
49627;BME280;35527;54.616;39.786;2023-01-25T11:16:28;101292.63;;;-2.28;100.00
49627;BME280;35527;54.616;39.786;2023-01-25T11:19:36;101309.97;;;-2.16;100.00
49627;BME280;35527;54.616;39.786;2023-01-25T11:22:49;101294.34;;;-2.27;100.00
49627;BME280;35527;54.616;39.786;2023-01-25T11:26:10;101290.91;;;-2.29;100.00
49627;BME280;35527;54.616;39.786;2023-01-25T11:29:19;101290.22;;;-2.24;100.00
49627;BME280;35527;54.616;39.786;2023-01-25T11:32:47;101301.53;;;-2.15;100.00
49627;BME280;35527;54.616;39.786;2023-01-25T11:36:08;101306.56;;;-2.16;100.00
49627;BME280;35527;54.616;39.786;2023-01-25T11:57:02;101296.75;;;-2.31;100.00
49627;BME280;35527;54.616;39.786;2023-01-25T12:00:29;101294.75;;;-2.38;100.00
49627;BME280;35527;54.616;39.786;2023-01-25T12:21:01;101286.63;;;-2.07;100.00
49627;BME280;35527;54.616;39.786;2023-01-25T12:24:46;101244.03;;;-2.62;100.00
49627;BME280;35527;54.616;39.786;2023-01-25T12:31:27;101276.28;;;-2.36;100.00
49627;BME280;35527;54.616;39.786;2023-01-25T12:34:41;101259.75;;;-2.48;100.00
49627;BME280;35527;54.616;39.786;2023-01-25T12:37:51;101247.00;;;-2.50;100.00
49627;BME280;35527;54.616;39.786;2023-01-25T12:41:43;101255.75;;;-2.66;100.00
49627;BME280;35527;54.616;39.786;2023-01-25T12:45:04;101253.00;;;-2.70;100.00
49627;BME280;35527;54.616;39.786;2023-01-25T12:48:17;101245.06;;;-2.80;100.00
49627;BME280;35527;54.616;39.786;2023-01-25T12:51:32;101266.03;;;-2.61;100.00
49627;BME280;35527;54.616;39.786;2023-01-25T12:54:40;101259.28;;;-2.61;100.00
49627;BME280;35527;54.616;39.786;2023-01-25T12:58:45;101272.06;;;-2.58;100.00
49627;BME280;35527;54.616;39.786;2023-01-25T13:02:03;101250.91;;;-2.81;100.00
49627;BME280;35527;54.616;39.786;2023-01-25T13:05:28;101238.88;;;-2.86;100.00
49627;BME280;35527;54.616;39.786;2023-01-25T13:08:45;101249.13;;;-2.83;100.00
49627;BME280;35527;54.616;39.786;2023-01-25T13:11:54;101224.94;;;-2.98;100.00
49627;BME280;35527;54.616;39.786;2023-01-25T13:15:42;101229.25;;;-2.95;100.00
49627;BME280;35527;54.616;39.786;2023-01-25T13:18:46;101249.97;;;-2.62;100.00
49627;BME280;35527;54.616;39.786;2023-01-25T13:21:49;101220.28;;;-2.87;100.00
49627;BME280;35527;54.616;39.786;2023-01-25T13:31:59;101228.25;;;-3.00;100.00
49627;BME280;35527;54.616;39.786;2023-01-25T13:35:03;101220.78;;;-2.97;100.00
49627;BME280;35527;54.616;39.786;2023-01-25T13:41:14;101202.97;;;-2.76;100.00
49627;BME280;35527;54.616;39.786;2023-01-25T13:44:26;101219.84;;;-2.77;100.00
49627;BME280;35527;54.616;39.786;2023-01-25T13:47:34;101219.38;;;-2.66;100.00
49627;BME280;35527;54.616;39.786;2023-01-25T13:50:47;101207.19;;;-2.54;100.00
49627;BME280;35527;54.616;39.786;2023-01-25T13:53:56;101200.25;;;-2.81;100.00
49627;BME280;35527;54.616;39.786;2023-01-25T13:57:05;101160.72;;;-3.22;100.00
49627;BME280;35527;54.616;39.786;2023-01-25T14:00:14;101213.00;;;-2.79;100.00
49627;BME280;35527;54.616;39.786;2023-01-25T14:03:25;101208.50;;;-2.86;100.00
49627;BME280;35527;54.616;39.786;2023-01-25T14:06:34;101211.72;;;-2.90;100.00
49627;BME280;35527;54.616;39.786;2023-01-25T14:09:41;101198.25;;;-2.67;100.00
49627;BME280;35527;54.616;39.786;2023-01-25T14:12:50;101213.28;;;-2.72;100.00
49627;BME280;35527;54.616;39.786;2023-01-25T14:19:21;101198.34;;;-2.86;100.00
49627;BME280;35527;54.616;39.786;2023-01-25T14:22:31;101194.94;;;-2.66;100.00
49627;BME280;35527;54.616;39.786;2023-01-25T14:25:39;101195.19;;;-2.58;100.00
49627;BME280;35527;54.616;39.786;2023-01-25T14:28:44;101177.94;;;-2.68;100.00
49627;BME280;35527;54.616;39.786;2023-01-25T14:31:53;101165.53;;;-2.61;100.00
49627;BME280;35527;54.616;39.786;2023-01-25T14:38:58;101182.09;;;-2.22;100.00
49627;BME280;35527;54.616;39.786;2023-01-25T14:42:03;101158.72;;;-2.38;100.00
49627;BME280;35527;54.616;39.786;2023-01-25T14:45:11;101163.16;;;-2.32;100.00
49627;BME280;35527;54.616;39.786;2023-01-25T14:55:07;101178.81;;;-2.20;100.00
49627;BME280;35527;54.616;39.786;2023-01-25T14:58:16;101169.19;;;-2.05;100.00
49627;BME280;35527;54.616;39.786;2023-01-25T15:01:37;101171.72;;;-2.05;100.00
49627;BME280;35527;54.616;39.786;2023-01-25T15:04:59;101161.59;;;-2.05;100.00
49627;BME280;35527;54.616;39.786;2023-01-25T15:08:41;101164.41;;;-1.95;100.00
49627;BME280;35527;54.616;39.786;2023-01-25T15:11:45;101163.91;;;-2.11;100.00
49627;BME280;35527;54.616;39.786;2023-01-25T15:14:55;101141.69;;;-2.18;100.00
49627;BME280;35527;54.616;39.786;2023-01-25T15:18:00;101165.38;;;-2.17;100.00
49627;BME280;35527;54.616;39.786;2023-01-25T15:21:30;101157.97;;;-2.11;100.00
49627;BME280;35527;54.616;39.786;2023-01-25T15:24:34;101140.88;;;-2.41;100.00
49627;BME280;35527;54.616;39.786;2023-01-25T15:27:41;101128.59;;;-2.30;100.00
49627;BME280;35527;54.616;39.786;2023-01-25T15:30:44;101108.75;;;-2.42;100.00
49627;BME280;35527;54.616;39.786;2023-01-25T15:33:47;101143.44;;;-1.91;100.00
49627;BME280;35527;54.616;39.786;2023-01-25T15:36:50;101145.50;;;-2.05;100.00
49627;BME280;35527;54.616;39.786;2023-01-25T15:39:56;101141.94;;;-1.85;100.00
49627;BME280;35527;54.616;39.786;2023-01-25T15:42:59;101116.75;;;-1.80;100.00
49627;BME280;35527;54.616;39.786;2023-01-25T15:46:02;101082.09;;;-2.05;100.00
49627;BME280;35527;54.616;39.786;2023-01-25T15:49:06;101102.22;;;-1.84;100.00
49627;BME280;35527;54.616;39.786;2023-01-25T15:52:11;101127.38;;;-1.65;100.00
49627;BME280;35527;54.616;39.786;2023-01-25T15:55:15;101112.81;;;-1.70;100.00
49627;BME280;35527;54.616;39.786;2023-01-25T15:58:27;101135.81;;;-1.66;100.00
49627;BME280;35527;54.616;39.786;2023-01-25T16:01:31;101144.09;;;-1.71;100.00
49627;BME280;35527;54.616;39.786;2023-01-25T16:04:35;101126.09;;;-1.77;100.00
49627;BME280;35527;54.616;39.786;2023-01-25T16:07:41;101117.41;;;-1.86;100.00
49627;BME280;35527;54.616;39.786;2023-01-25T16:10:45;101108.00;;;-1.88;100.00
49627;BME280;35527;54.616;39.786;2023-01-25T16:13:48;101118.16;;;-1.88;100.00
49627;BME280;35527;54.616;39.786;2023-01-25T16:16:57;101057.91;;;-2.21;100.00
49627;BME280;35527;54.616;39.786;2023-01-25T16:20:00;101115.44;;;-1.94;100.00
49627;BME280;35527;54.616;39.786;2023-01-25T16:23:03;101114.97;;;-2.08;100.00
49627;BME280;35527;54.616;39.786;2023-01-25T16:26:31;101095.63;;;-2.05;100.00
49627;BME280;35527;54.616;39.786;2023-01-25T16:29:36;101106.13;;;-1.94;100.00
49627;BME280;35527;54.616;39.786;2023-01-25T16:32:43;101105.31;;;-1.93;100.00
49627;BME280;35527;54.616;39.786;2023-01-25T16:36:21;101126.44;;;-1.94;100.00
49627;BME280;35527;54.616;39.786;2023-01-25T16:39:24;101106.16;;;-2.19;100.00
49627;BME280;35527;54.616;39.786;2023-01-25T16:42:32;101101.81;;;-2.22;100.00
49627;BME280;35527;54.616;39.786;2023-01-25T16:45:35;101106.72;;;-2.27;100.00
49627;BME280;35527;54.616;39.786;2023-01-25T16:48:38;101108.25;;;-2.06;100.00
49627;BME280;35527;54.616;39.786;2023-01-25T16:51:42;101100.81;;;-2.01;100.00
49627;BME280;35527;54.616;39.786;2023-01-25T16:55:11;101061.56;;;-2.13;100.00
49627;BME280;35527;54.616;39.786;2023-01-25T16:58:15;101080.97;;;-1.88;100.00
49627;BME280;35527;54.616;39.786;2023-01-25T17:01:19;101088.19;;;-2.25;100.00
49627;BME280;35527;54.616;39.786;2023-01-25T17:04:23;101095.06;;;-2.21;100.00
49627;BME280;35527;54.616;39.786;2023-01-25T17:07:28;101070.34;;;-2.03;100.00
49627;BME280;35527;54.616;39.786;2023-01-25T17:10:34;101083.34;;;-2.18;100.00
49627;BME280;35527;54.616;39.786;2023-01-25T17:13:40;101073.31;;;-2.15;100.00
49627;BME280;35527;54.616;39.786;2023-01-25T17:16:43;101088.03;;;-2.30;100.00
49627;BME280;35527;54.616;39.786;2023-01-25T17:19:53;101084.84;;;-2.24;100.00
49627;BME280;35527;54.616;39.786;2023-01-25T17:22:57;101113.59;;;-2.24;100.00
49627;BME280;35527;54.616;39.786;2023-01-25T17:26:08;101100.78;;;-2.29;100.00
49627;BME280;35527;54.616;39.786;2023-01-25T17:29:11;101079.16;;;-2.43;100.00
49627;BME280;35527;54.616;39.786;2023-01-25T17:32:16;101086.63;;;-2.22;100.00
49627;BME280;35527;54.616;39.786;2023-01-25T17:35:19;101099.22;;;-2.23;100.00